Аэропорт: Якутск. Якутск

ICAO: UEEE

METAR:
2021-07-28 13:30:00
UEEE 281330Z 36006MPS CAVOK 17/03 Q1007 R23L/09//70 NOSIG RMK QFE747
METAR:
2021-07-28 11:00:00
TAF UEEE 281100Z 2812/2918 01006G12MPS CAVOK TEMPO 2812/2824 2100 FU NSC